»·PEaware :: N208TC KSNA-KPSP

N208TC :: KSNA-KPSP

FLIGHT INFORMATION

Flight Status: Arrived
Operator: Privately registered:
United States
More flights under this callsign
Pilot: Thiago S. (19132)
Aircraft: CESSNA 208 CARAVAN
(C208)
More flights by this aircraft type
Origin: KSNA John Wayne-Orange Co
United States
Destination: KPSP Palm Springs Intl
United States
More flights between these airports :: More routes between these airports
Route: +
File this flight plan on PilotEdge
Remarks:
Altitude:
(Current/Filed)
9,500ft
Speed:
(Current/Filed)
0kts
Departed: 14-Mar-19 03:58 PM
Arrived: 14-Mar-19 04:34 PM
Distance/Time
Traveled:
68nm/0:36
Distance/Time
To Go:
Arrived

Flight Plot

Page will automatically refresh every two minutes.


Map Options




Map Legend


Flown Route
Filed Route
Departure Airport
Arrival Airport
Navaid (VOR, NDB)
Fix

Horizontal Profiles

Position Reports

Time Latitude Longitude Heading Altitude Ground
Speed
14-Mar-19 15:39 33.672130 -117.866963 301 61ft 0kts
14-Mar-19 15:40 33.672130 -117.866963 301 61ft 0kts
14-Mar-19 15:41 33.672130 -117.866963 301 61ft 0kts
14-Mar-19 15:42 33.672130 -117.866963 301 61ft 0kts
14-Mar-19 15:43 33.672130 -117.866963 301 61ft 0kts
14-Mar-19 15:44 33.672130 -117.866963 301 61ft 0kts
14-Mar-19 15:45 33.672130 -117.866963 301 61ft 0kts
14-Mar-19 15:46 33.672132 -117.866966 301 61ft 0kts
14-Mar-19 15:47 33.672133 -117.866970 301 61ft 0kts
14-Mar-19 15:48 33.672135 -117.866972 301 61ft 0kts
14-Mar-19 15:49 33.672136 -117.866974 301 61ft 0kts
14-Mar-19 15:50 33.672136 -117.866975 301 61ft 0kts
14-Mar-19 15:51 33.672137 -117.866976 301 61ft 0kts
14-Mar-19 15:52 33.672137 -117.866977 301 61ft 0kts
14-Mar-19 15:53 33.672151 -117.867004 301 61ft 0kts
14-Mar-19 15:54 33.673050 -117.867302 46 61ft 7kts
14-Mar-19 15:56 33.673865 -117.867410 262 61ft 0kts
14-Mar-19 15:57 33.673930 -117.867659 296 61ft 4kts
14-Mar-19 15:58 33.685856 -117.860328 31 548ft 111kts
14-Mar-19 15:59 33.695041 -117.825079 93 2215ft 135kts
14-Mar-19 16:00 33.692450 -117.775934 92 3061ft 162kts
14-Mar-19 16:01 33.689017 -117.720375 91 3001ft 157kts
14-Mar-19 16:02 33.685959 -117.671680 91 3601ft 141kts
14-Mar-19 16:03 33.683193 -117.624366 91 4315ft 145kts
14-Mar-19 16:04 33.680015 -117.573005 94 5029ft 157kts
14-Mar-19 16:05 33.675498 -117.520259 94 5705ft 157kts
14-Mar-19 16:06 33.671028 -117.468116 94 6405ft 157kts
14-Mar-19 16:07 33.665398 -117.416156 94 7104ft 157kts
14-Mar-19 16:08 33.659348 -117.363796 94 7832ft 161kts
14-Mar-19 16:09 33.657272 -117.309882 74 8545ft 162kts
14-Mar-19 16:10 33.668606 -117.256797 72 9247ft 164kts
14-Mar-19 16:11 33.680073 -117.201986 72 9506ft 172kts
14-Mar-19 16:12 33.691703 -117.145748 72 9516ft 178kts
14-Mar-19 16:13 33.703386 -117.088440 72 9513ft 174kts
14-Mar-19 16:14 33.714597 -117.032194 72 9511ft 169kts
14-Mar-19 16:14 33.720242 -116.986460 93 9536ft 169kts
14-Mar-19 16:16 33.709943 -116.921068 91 9534ft 171kts
14-Mar-19 16:17 33.704552 -116.866323 91 9532ft 166kts
14-Mar-19 16:17 33.699787 -116.820475 91 9561ft 167kts
14-Mar-19 16:18 33.693945 -116.764277 91 9546ft 166kts
14-Mar-19 16:20 33.686920 -116.699584 92 9474ft 167kts
14-Mar-19 16:20 33.678176 -116.654114 97 9484ft 168kts
14-Mar-19 16:21 33.667062 -116.598862 97 8949ft 167kts
14-Mar-19 16:22 33.656075 -116.545365 97 8145ft 162kts
14-Mar-19 16:23 33.645214 -116.492801 97 7346ft 161kts
14-Mar-19 16:24 33.650988 -116.445851 47 6567ft 137kts
14-Mar-19 16:25 33.678707 -116.420807 14 5776ft 117kts
14-Mar-19 16:26 33.707877 -116.411434 358 5041ft 99kts
14-Mar-19 16:27 33.732862 -116.423745 333 4078ft 96kts
14-Mar-19 16:28 33.754502 -116.440704 331 3337ft 91kts
14-Mar-19 16:29 33.772499 -116.457901 327 2361ft 77kts
14-Mar-19 16:30 33.790253 -116.473113 332 1647ft 78kts
14-Mar-19 16:31 33.806092 -116.486719 329 1047ft 66kts
14-Mar-19 16:32 33.821766 -116.500630 328 518ft 69kts
14-Mar-19 16:33 33.828713 -116.507759 289 483ft 11kts
14-Mar-19 16:34 33.828275 -116.508400 171 482ft 6kts
14-Mar-19 16:35 33.825462 -116.507359 221 482ft 9kts
14-Mar-19 16:36 33.825813 -116.508997 357 483ft 4kts
14-Mar-19 16:37 33.826451 -116.509329 275 482ft 0kts
14-Mar-19 16:38 33.826452 -116.509338 275 482ft 0kts
14-Mar-19 16:39 33.826452 -116.509338 275 482ft 0kts
14-Mar-19 16:40 33.826452 -116.509338 275 482ft 0kts
14-Mar-19 16:41 33.826452 -116.509338 275 482ft 0kts
14-Mar-19 16:42 33.826452 -116.509338 275 482ft 0kts
14-Mar-19 16:43 33.826452 -116.509338 275 482ft 0kts
14-Mar-19 16:44 33.826452 -116.509338 275 482ft 0kts
14-Mar-19 16:45 33.826452 -116.509338 275 482ft 0kts
14-Mar-19 16:46 33.826452 -116.509338 275 482ft 0kts
14-Mar-19 16:47 33.826452 -116.509338 275 482ft 0kts
14-Mar-19 16:48 33.826452 -116.509338 275 482ft 0kts

Navigation Log

Ident Type
Flight plan parsing failed, navigation log unavailable